Time;durP1;ratioP1;P1;durP2;ratioP2;P2;SDS_P1;SDS_P2;PMS_P1;PMS_P2;Temp;Humidity;BMP_temperature;BMP_pressure;BME280_temperature;BME280_humidity;BME280_pressure;Samples;Min_cycle;Max_cycle;Signal;HPM_P1;HPM_P2
2022/08/16 00:01:28;;;;;;;8.95;7.07;;;19.80;99.90;;;;;;626393;230;26821;-69
2022/08/16 00:03:55;;;;;;;7.30;6.53;;;19.80;99.90;;;;;;626263;230;26599;-68
2022/08/16 00:06:22;;;;;;;8.57;6.80;;;19.80;99.90;;;;;;626091;230;26580;-68
2022/08/16 00:08:50;;;;;;;7.30;5.90;;;19.70;99.90;;;;;;626176;230;26595;-68
2022/08/16 00:11:19;;;;;;;6.20;5.70;;;19.70;99.90;;;;;;626115;229;26565;-68
2022/08/16 00:13:47;;;;;;;6.80;6.20;;;19.60;99.90;;;;;;625833;229;26591;-68
2022/08/16 00:16:14;;;;;;;7.40;6.68;;;19.60;99.90;;;;;;625762;230;26548;-68
2022/08/16 00:18:41;;;;;;;6.82;6.12;;;19.60;99.90;;;;;;625848;224;26558;-69
2022/08/16 00:21:09;;;;;;;7.37;6.70;;;19.60;99.90;;;;;;625822;229;26529;-69
2022/08/16 00:23:36;;;;;;;6.05;5.43;;;19.60;99.90;;;;;;625823;230;26598;-69
2022/08/16 00:26:04;;;;;;;8.13;7.30;;;19.60;99.90;;;;;;625749;230;26524;-69
2022/08/16 00:28:31;;;;;;;7.37;6.78;;;19.70;99.90;;;;;;625733;229;26772;-69
2022/08/16 00:30:58;;;;;;;7.75;6.80;;;19.70;99.90;;;;;;625524;230;26529;-69
2022/08/16 00:33:25;;;;;;;7.12;6.53;;;19.70;99.90;;;;;;625426;229;26829;-68
2022/08/16 00:35:52;;;;;;;7.53;6.43;;;19.70;99.90;;;;;;625504;229;26605;-69
2022/08/16 00:38:20;;;;;;;6.85;6.25;;;19.60;99.90;;;;;;625476;229;26815;-69
2022/08/16 00:40:47;;;;;;;7.07;6.47;;;19.60;99.90;;;;;;625491;229;26585;-69
2022/08/16 00:43:17;;;;;;;6.53;5.87;;;19.60;99.90;;;;;;625474;230;26789;-68
2022/08/16 00:45:53;;;;;;;6.97;6.30;;;19.60;99.90;;;;;;625383;230;26604;-67
2022/08/16 00:48:20;;;;;;;7.50;6.82;;;19.60;99.90;;;;;;625171;230;26582;-69
2022/08/16 00:50:48;;;;;;;7.85;6.70;;;19.60;99.90;;;;;;625597;229;26593;-68
2022/08/16 00:53:16;;;;;;;7.30;6.60;;;19.60;99.90;;;;;;625516;229;26549;-69
2022/08/16 00:55:46;;;;;;;7.72;6.93;;;19.60;99.90;;;;;;625495;229;26587;-68
2022/08/16 00:58:13;;;;;;;7.50;6.80;;;19.60;99.90;;;;;;625442;229;27300;-68
2022/08/16 01:00:40;;;;;;;7.07;6.43;;;19.60;99.90;;;;;;625790;229;26588;-68
2022/08/16 01:03:07;;;;;;;7.32;6.62;;;19.60;99.90;;;;;;625517;229;26614;-68
2022/08/16 01:05:35;;;;;;;7.10;6.45;;;19.60;99.90;;;;;;625881;228;26816;-68
2022/08/16 01:08:04;;;;;;;7.50;6.80;;;19.60;99.90;;;;;;626976;229;26506;-68
2022/08/16 01:10:31;;;;;;;6.62;6.03;;;19.60;99.90;;;;;;626573;227;26778;-68
2022/08/16 01:12:58;;;;;;;6.70;6.20;;;19.60;99.90;;;;;;626288;224;26529;-68
2022/08/16 01:15:26;;;;;;;6.90;6.30;;;19.50;99.90;;;;;;626071;230;26548;-68
2022/08/16 01:17:54;;;;;;;7.68;6.82;;;19.50;99.90;;;;;;626072;229;26569;-69
2022/08/16 01:20:22;;;;;;;6.90;6.30;;;19.50;99.90;;;;;;626118;229;26632;-69
2022/08/16 01:22:51;;;;;;;7.30;6.70;;;19.40;99.90;;;;;;626059;229;26574;-69
2022/08/16 01:25:22;;;;;;;6.60;6.00;;;19.40;99.90;;;;;;625533;229;26810;-67
2022/08/16 01:27:50;;;;;;;6.55;5.97;;;19.40;99.90;;;;;;625708;230;26549;-68
2022/08/16 01:30:19;;;;;;;7.40;6.32;;;19.40;99.90;;;;;;625925;230;26509;-67
2022/08/16 01:32:46;;;;;;;6.95;6.35;;;19.40;99.90;;;;;;626037;229;26788;-67
2022/08/16 01:35:14;;;;;;;7.00;6.30;;;19.30;99.90;;;;;;626135;224;26533;-68
2022/08/16 01:37:42;;;;;;;6.65;6.05;;;19.40;99.90;;;;;;625693;230;26518;-69
2022/08/16 01:40:11;;;;;;;6.68;6.18;;;19.40;99.90;;;;;;625800;229;26533;-69
2022/08/16 01:42:39;;;;;;;6.43;5.93;;;19.30;99.90;;;;;;625494;230;26575;-69
2022/08/16 01:45:07;;;;;;;7.45;5.90;;;19.30;99.90;;;;;;625533;230;26590;-69
2022/08/16 01:47:34;;;;;;;7.12;6.43;;;19.30;99.90;;;;;;625475;230;27326;-69
2022/08/16 01:50:03;;;;;;;6.82;6.25;;;19.20;99.90;;;;;;625192;230;26587;-69
2022/08/16 01:52:29;;;;;;;8.38;6.20;;;19.20;99.90;;;;;;625081;230;27112;-69
2022/08/16 01:54:56;;;;;;;8.25;6.20;;;19.20;99.90;;;;;;625359;230;26596;-69
2022/08/16 01:57:24;;;;;;;7.07;6.47;;;19.20;99.90;;;;;;625407;230;26596;-68
2022/08/16 01:59:54;;;;;;;7.03;6.43;;;19.20;99.90;;;;;;625256;229;27286;-68
2022/08/16 02:02:23;;;;;;;7.65;6.60;;;19.20;99.90;;;;;;625298;229;26596;-67
2022/08/16 02:04:48;;;;;;;6.82;6.22;;;19.10;99.90;;;;;;625317;230;26817;-67
2022/08/16 02:07:17;;;;;;;7.22;6.62;;;19.10;99.90;;;;;;625432;229;26623;-67
2022/08/16 02:09:42;;;;;;;7.15;6.45;;;19.10;99.90;;;;;;625261;230;26825;-67
2022/08/16 02:12:10;;;;;;;7.15;6.55;;;19.10;99.90;;;;;;625249;229;26595;-68
2022/08/16 02:14:37;;;;;;;6.75;6.25;;;19.00;99.90;;;;;;625354;224;26851;-68
2022/08/16 02:17:04;;;;;;;6.82;6.05;;;19.00;99.90;;;;;;625756;224;26558;-68
2022/08/16 02:19:31;;;;;;;7.00;6.40;;;19.00;99.90;;;;;;626701;229;27122;-68
2022/08/16 02:21:59;;;;;;;7.22;6.62;;;19.10;99.90;;;;;;626469;224;26535;-68
2022/08/16 02:24:27;;;;;;;7.55;6.90;;;19.10;99.90;;;;;;626280;229;26567;-68
2022/08/16 02:26:55;;;;;;;6.72;6.22;;;19.10;99.90;;;;;;626076;224;26548;-68
2022/08/16 02:29:23;;;;;;;7.45;6.82;;;19.00;99.90;;;;;;625969;229;26607;-68
2022/08/16 02:31:50;;;;;;;6.97;6.37;;;19.00;99.90;;;;;;626018;229;26609;-67
2022/08/16 02:34:18;;;;;;;8.07;6.50;;;19.00;99.90;;;;;;625961;227;26650;-68
2022/08/16 02:36:45;;;;;;;6.53;5.95;;;19.00;99.90;;;;;;626152;227;26561;-68
2022/08/16 02:39:12;;;;;;;7.03;6.43;;;19.10;99.90;;;;;;626104;224;26509;-67
2022/08/16 02:41:39;;;;;;;6.93;6.25;;;19.00;99.90;;;;;;626125;229;26787;-68
2022/08/16 02:44:06;;;;;;;7.62;6.87;;;19.00;99.90;;;;;;626117;229;26537;-68
2022/08/16 02:46:33;;;;;;;6.90;6.37;;;19.00;99.90;;;;;;626163;229;26747;-67
2022/08/16 02:49:01;;;;;;;6.75;6.15;;;19.00;99.90;;;;;;626081;224;26508;-67
2022/08/16 02:51:29;;;;;;;7.25;6.65;;;19.00;99.90;;;;;;626115;229;26513;-67
2022/08/16 02:53:57;;;;;;;6.95;6.22;;;19.00;99.90;;;;;;625941;224;26547;-67
2022/08/16 02:56:25;;;;;;;7.18;6.47;;;19.00;99.90;;;;;;625842;229;26550;-68
2022/08/16 02:58:53;;;;;;;6.55;6.05;;;19.00;99.90;;;;;;625809;229;26514;-68
2022/08/16 03:01:22;;;;;;;7.10;6.50;;;19.00;99.90;;;;;;625799;224;26791;-67
2022/08/16 03:03:48;;;;;;;6.30;5.82;;;19.00;99.90;;;;;;625753;229;26620;-68
2022/08/16 03:06:19;;;;;;;7.05;6.28;;;19.00;99.90;;;;;;625409;229;26783;-68
2022/08/16 03:08:43;;;;;;;7.57;6.87;;;18.90;99.90;;;;;;625110;228;26589;-67
2022/08/16 03:11:11;;;;;;;7.30;6.62;;;19.00;99.90;;;;;;625345;224;26807;-67
2022/08/16 03:13:38;;;;;;;6.68;6.07;;;19.00;99.90;;;;;;625272;230;26867;-67
2022/08/16 03:16:06;;;;;;;7.30;6.70;;;19.00;99.90;;;;;;625423;230;26569;-67
2022/08/16 03:18:34;;;;;;;7.43;6.82;;;18.90;99.90;;;;;;625423;230;26579;-67
2022/08/16 03:21:03;;;;;;;7.53;6.82;;;18.90;99.90;;;;;;625346;224;26532;-67
2022/08/16 03:23:30;;;;;;;7.57;6.97;;;18.90;99.90;;;;;;625405;229;26581;-66
2022/08/16 03:25:57;;;;;;;7.90;7.07;;;18.90;99.90;;;;;;625421;229;26862;-66
2022/08/16 03:28:24;;;;;;;7.05;6.55;;;18.80;99.90;;;;;;625513;228;26554;-66
2022/08/16 03:30:51;;;;;;;7.12;6.43;;;18.80;99.90;;;;;;627072;229;26803;-67
2022/08/16 03:33:19;;;;;;;6.80;6.30;;;18.80;99.90;;;;;;626574;229;26598;-67
2022/08/16 03:35:46;;;;;;;6.95;6.35;;;18.80;99.90;;;;;;626287;229;26908;-68
2022/08/16 03:38:13;;;;;;;7.62;6.93;;;18.80;99.90;;;;;;626222;224;26598;-67
2022/08/16 03:40:41;;;;;;;7.30;6.62;;;18.80;99.90;;;;;;626043;224;26835;-67
2022/08/16 03:43:08;;;;;;;7.18;6.43;;;18.80;99.90;;;;;;625924;230;26608;-67
2022/08/16 03:45:35;;;;;;;6.78;6.05;;;18.80;99.90;;;;;;625864;227;26767;-67
2022/08/16 03:48:02;;;;;;;6.22;5.62;;;18.70;99.90;;;;;;625710;230;26549;-67
2022/08/16 03:50:29;;;;;;;7.93;6.20;;;18.70;99.90;;;;;;625570;230;27290;-67
2022/08/16 03:52:56;;;;;;;6.95;6.20;;;18.70;99.90;;;;;;625496;230;26537;-67
2022/08/16 03:55:24;;;;;;;7.40;6.60;;;18.80;99.90;;;;;;625704;230;26599;-67
2022/08/16 03:57:54;;;;;;;6.75;6.15;;;18.80;99.90;;;;;;625725;229;26537;-67
2022/08/16 04:00:20;;;;;;;7.30;6.60;;;18.80;99.90;;;;;;625628;230;26549;-67
2022/08/16 04:02:48;;;;;;;8.25;6.95;;;18.80;99.90;;;;;;625578;227;26573;-67
2022/08/16 04:05:15;;;;;;;6.85;6.32;;;18.80;99.90;;;;;;625494;230;26779;-67
2022/08/16 04:07:42;;;;;;;7.40;6.70;;;18.80;99.90;;;;;;625383;230;26611;-67
2022/08/16 04:10:10;;;;;;;7.87;7.05;;;18.80;99.90;;;;;;625474;229;27316;-67
2022/08/16 04:12:37;;;;;;;7.28;6.57;;;18.80;99.90;;;;;;625295;229;26613;-67
2022/08/16 04:15:06;;;;;;;8.02;7.32;;;18.90;99.90;;;;;;625276;224;26607;-67
2022/08/16 04:17:34;;;;;;;7.45;6.75;;;18.80;99.90;;;;;;625352;224;26560;-67
2022/08/16 04:20:06;;;;;;;7.50;6.80;;;18.90;99.90;;;;;;625419;229;26848;-67
2022/08/16 04:22:28;;;;;;;5.85;5.45;;;19.00;99.90;;;;;;624864;228;26616;-67
2022/08/16 04:24:55;;;;;;;6.53;5.93;;;19.00;99.90;;;;;;625423;229;26847;-67
2022/08/16 04:27:23;;;;;;;7.47;6.18;;;19.00;99.90;;;;;;625420;229;26565;-67
2022/08/16 04:29:51;;;;;;;6.40;5.82;;;19.10;99.90;;;;;;625411;229;26573;-67
2022/08/16 04:32:19;;;;;;;5.72;5.32;;;19.10;99.90;;;;;;625374;230;26550;-67
2022/08/16 04:34:46;;;;;;;5.65;5.15;;;19.10;99.90;;;;;;625436;229;26583;-67
2022/08/16 04:37:13;;;;;;;8.13;7.00;;;19.10;99.90;;;;;;625389;230;26600;-67
2022/08/16 04:39:40;;;;;;;7.25;6.65;;;19.20;99.90;;;;;;625457;224;26831;-67
2022/08/16 04:42:08;;;;;;;7.18;6.57;;;19.20;99.90;;;;;;627057;224;26558;-67
2022/08/16 04:44:35;;;;;;;7.28;6.68;;;19.20;99.90;;;;;;626577;229;26896;-67
2022/08/16 04:47:02;;;;;;;7.32;6.65;;;19.20;99.90;;;;;;626279;229;26557;-67
2022/08/16 04:49:30;;;;;;;6.68;6.18;;;19.30;99.90;;;;;;626270;224;26567;-67
2022/08/16 04:51:57;;;;;;;7.20;6.60;;;19.30;99.90;;;;;;626011;224;26601;-67
2022/08/16 04:54:25;;;;;;;7.07;6.57;;;19.40;99.90;;;;;;626064;229;26617;-67
2022/08/16 04:56:53;;;;;;;7.85;6.50;;;19.40;99.90;;;;;;626004;229;26578;-67
2022/08/16 04:59:21;;;;;;;7.05;6.55;;;19.50;99.90;;;;;;625798;229;26529;-67
2022/08/16 05:01:48;;;;;;;6.90;6.30;;;19.50;99.90;;;;;;625634;224;26569;-66
2022/08/16 05:04:16;;;;;;;7.03;6.43;;;19.60;99.90;;;;;;625595;230;26590;-67
2022/08/16 05:06:43;;;;;;;7.60;6.80;;;19.70;99.90;;;;;;625631;229;27214;-67
2022/08/16 05:09:11;;;;;;;7.45;6.75;;;19.90;99.90;;;;;;625579;229;26736;-66
2022/08/16 05:11:39;;;;;;;7.18;6.50;;;19.80;99.90;;;;;;625540;230;27472;-66
2022/08/16 05:14:06;;;;;;;7.35;6.65;;;19.90;99.90;;;;;;625700;229;26573;-66
2022/08/16 05:16:33;;;;;;;7.22;6.62;;;20.00;99.90;;;;;;625658;229;26740;-66
2022/08/16 05:19:01;;;;;;;7.62;6.65;;;20.10;99.90;;;;;;625336;229;26601;-67
2022/08/16 05:21:30;;;;;;;7.30;6.43;;;20.30;99.90;;;;;;625345;230;26566;-66
2022/08/16 05:23:57;;;;;;;6.80;6.20;;;20.30;99.90;;;;;;625296;226;26619;-67
2022/08/16 05:26:25;;;;;;;6.95;6.35;;;20.40;99.90;;;;;;625378;230;26602;-66
2022/08/16 05:28:53;;;;;;;7.12;6.53;;;20.50;99.90;;;;;;625328;224;26624;-67
2022/08/16 05:31:21;;;;;;;5.70;5.20;;;20.60;99.90;;;;;;625388;230;26627;-67
2022/08/16 05:33:49;;;;;;;6.55;6.00;;;20.70;99.90;;;;;;625414;230;26614;-67
2022/08/16 05:36:16;;;;;;;6.15;5.65;;;20.60;99.90;;;;;;625430;225;26610;-67
2022/08/16 05:38:44;;;;;;;6.32;5.78;;;20.80;99.90;;;;;;625351;229;26635;-67
2022/08/16 05:41:11;;;;;;;6.05;5.57;;;20.90;99.90;;;;;;625381;229;26871;-66
2022/08/16 05:43:38;;;;;;;6.57;6.05;;;21.00;99.90;;;;;;625359;229;26623;-67
2022/08/16 05:46:06;;;;;;;5.95;5.32;;;21.10;99.90;;;;;;625387;224;26566;-67
2022/08/16 05:48:33;;;;;;;7.60;6.87;;;21.20;99.90;;;;;;625441;229;26599;-66
2022/08/16 05:51:01;;;;;;;7.90;7.25;;;21.20;99.90;;;;;;625327;229;26830;-67
2022/08/16 05:53:28;;;;;;;7.72;6.93;;;21.30;99.90;;;;;;626967;228;26580;-67
2022/08/16 05:55:55;;;;;;;7.32;6.72;;;21.40;99.90;;;;;;626631;229;26802;-67
2022/08/16 05:58:22;;;;;;;5.55;5.15;;;21.40;99.90;;;;;;626354;229;26553;-66
2022/08/16 06:00:49;;;;;;;6.15;5.65;;;21.50;99.90;;;;;;626252;224;26569;-66
2022/08/16 06:03:17;;;;;;;6.40;5.80;;;21.70;99.90;;;;;;625989;224;26593;-66
2022/08/16 06:05:45;;;;;;;7.47;6.80;;;21.70;99.90;;;;;;625917;224;26603;-67
2022/08/16 06:08:12;;;;;;;6.62;6.12;;;21.80;99.90;;;;;;625995;230;26553;-66
2022/08/16 06:10:39;;;;;;;6.45;5.43;;;21.80;99.90;;;;;;625713;224;26788;-66
2022/08/16 06:13:07;;;;;;;8.15;7.35;;;21.90;99.90;;;;;;625620;229;26546;-66
2022/08/16 06:15:34;;;;;;;6.32;5.82;;;22.00;99.90;;;;;;625665;230;26752;-66
2022/08/16 06:18:01;;;;;;;5.65;5.25;;;22.10;99.90;;;;;;625828;230;26538;-67
2022/08/16 06:20:28;;;;;;;6.50;5.90;;;22.20;99.90;;;;;;625818;229;26774;-66
2022/08/16 06:22:56;;;;;;;6.20;5.70;;;22.30;99.90;;;;;;627047;225;26554;-65
2022/08/16 06:25:24;;;;;;;6.07;5.57;;;22.30;99.90;;;;;;630316;226;26630;-67
2022/08/16 06:27:52;;;;;;;6.30;5.70;;;22.40;99.90;;;;;;627799;224;26538;-67
2022/08/16 06:30:20;;;;;;;6.10;5.60;;;22.50;99.90;;;;;;611840;234;26559;-67
2022/08/16 06:32:48;;;;;;;6.47;5.87;;;22.60;99.90;;;;;;628923;226;26613;-67
2022/08/16 06:35:16;;;;;;;6.90;6.03;;;22.60;99.90;;;;;;628354;222;26600;-66
2022/08/16 06:37:43;;;;;;;6.90;6.20;;;22.70;99.90;;;;;;628103;227;26555;-66
2022/08/16 06:40:11;;;;;;;6.85;6.25;;;22.80;99.90;;;;;;628910;226;26562;-67
2022/08/16 06:42:39;;;;;;;7.80;7.10;;;22.80;99.90;;;;;;610730;234;26621;-66
2022/08/16 06:45:07;;;;;;;6.87;6.32;;;22.90;99.90;;;;;;614910;231;26620;-66
2022/08/16 06:47:35;;;;;;;7.20;6.03;;;23.10;99.90;;;;;;627958;226;26637;-66
2022/08/16 06:50:03;;;;;;;5.85;5.43;;;23.10;99.90;;;;;;625416;230;26609;-66
2022/08/16 06:52:31;;;;;;;6.22;5.72;;;23.10;99.90;;;;;;625390;229;26574;-66
2022/08/16 06:54:57;;;;;;;6.62;5.95;;;23.30;99.90;;;;;;625358;230;26582;-66
2022/08/16 06:57:26;;;;;;;5.85;5.40;;;23.50;99.90;;;;;;625514;229;26582;-66
2022/08/16 06:59:53;;;;;;;6.43;5.82;;;23.50;99.90;;;;;;625878;225;26591;-66
2022/08/16 07:02:21;;;;;;;8.02;7.22;;;23.50;99.90;;;;;;613288;230;26620;-66
2022/08/16 07:04:49;;;;;;;6.40;5.80;;;23.50;99.90;;;;;;628533;227;26606;-67
2022/08/16 07:07:16;;;;;;;7.35;6.22;;;23.50;99.90;;;;;;627535;226;26550;-72
2022/08/16 07:09:43;;;;;;;5.72;5.22;;;23.50;99.90;;;;;;625935;229;26601;-72
2022/08/16 07:12:11;;;;;;;6.72;6.12;;;23.60;99.90;;;;;;625467;230;26815;-72
2022/08/16 07:14:38;;;;;;;10.40;7.45;;;23.70;99.90;;;;;;625203;230;26551;-72
2022/08/16 07:17:06;;;;;;;6.65;6.15;;;23.90;99.90;;;;;;629397;226;26839;-72
2022/08/16 07:19:33;;;;;;;8.10;7.22;;;23.90;99.90;;;;;;626511;227;26598;-71
2022/08/16 07:22:02;;;;;;;10.48;8.50;;;24.00;99.90;;;;;;625133;230;26505;-70
2022/08/16 07:24:29;;;;;;;18.83;8.65;;;24.20;99.90;;;;;;625033;230;26537;-71
2022/08/16 07:26:58;;;;;;;6.37;4.97;;;24.30;99.90;;;;;;625433;224;26582;-69
2022/08/16 07:29:25;;;;;;;14.25;6.93;;;24.30;99.90;;;;;;608793;234;26885;-67
2022/08/16 07:31:52;;;;;;;40.33;13.20;;;24.40;99.90;;;;;;617475;228;26558;-68
2022/08/16 07:34:19;;;;;;;16.90;8.70;;;24.50;99.90;;;;;;626939;227;26827;-66
2022/08/16 07:36:46;;;;;;;69.47;20.33;;;24.60;99.90;;;;;;630928;226;26606;-66
2022/08/16 07:39:14;;;;;;;67.40;19.42;;;24.60;99.90;;;;;;628790;227;26580;-66
2022/08/16 07:41:42;;;;;;;62.33;17.33;;;24.70;99.90;;;;;;627879;227;26533;-66
2022/08/16 07:44:09;;;;;;;68.07;20.80;;;24.70;99.90;;;;;;631062;227;26530;-65
2022/08/16 07:46:37;;;;;;;56.95;17.58;;;24.70;99.20;;;;;;632958;226;26538;-65
2022/08/16 07:49:05;;;;;;;26.17;12.77;;;24.90;99.50;;;;;;631712;226;26532;-66
2022/08/16 07:51:35;;;;;;;15.43;9.35;;;24.90;98.60;;;;;;631206;226;26608;-66
2022/08/16 07:54:01;;;;;;;14.02;10.13;;;25.00;98.30;;;;;;635590;225;26786;-66
2022/08/16 07:56:29;;;;;;;12.02;8.75;;;25.00;98.20;;;;;;627531;225;26557;-65
2022/08/16 07:58:57;;;;;;;9.48;8.57;;;25.00;98.10;;;;;;632567;226;26545;-66
2022/08/16 08:01:25;;;;;;;11.95;8.60;;;25.00;97.50;;;;;;627899;227;26551;-66
2022/08/16 08:03:53;;;;;;;9.55;8.38;;;25.10;97.30;;;;;;632631;226;26632;-65
2022/08/16 08:06:21;;;;;;;11.95;9.27;;;25.10;97.10;;;;;;634621;226;26557;-64
2022/08/16 08:08:49;;;;;;;9.13;8.13;;;25.30;97.30;;;;;;604961;234;26590;-63
2022/08/16 08:11:16;;;;;;;8.02;7.20;;;25.20;97.20;;;;;;615721;232;26612;-63
2022/08/16 08:13:43;;;;;;;5.93;5.53;;;25.20;96.90;;;;;;628210;226;26577;-65
2022/08/16 08:16:11;;;;;;;8.57;7.87;;;25.20;96.70;;;;;;632777;225;26790;-65
2022/08/16 08:18:39;;;;;;;9.52;8.35;;;25.30;96.30;;;;;;604526;234;26552;-65
2022/08/16 08:21:06;;;;;;;8.48;7.68;;;25.20;96.50;;;;;;631510;226;26813;-65
2022/08/16 08:23:35;;;;;;;9.38;8.52;;;25.20;96.70;;;;;;625549;230;26566;-66
2022/08/16 08:26:00;;;;;;;8.82;7.95;;;25.30;96.60;;;;;;625738;230;26583;-65
2022/08/16 08:28:27;;;;;;;8.07;7.37;;;25.50;96.50;;;;;;625329;230;26779;-65
2022/08/16 08:30:54;;;;;;;9.23;8.18;;;25.60;96.20;;;;;;606199;234;26550;-65
2022/08/16 08:33:22;;;;;;;7.95;7.22;;;25.60;95.90;;;;;;616578;232;27068;-65
2022/08/16 08:35:49;;;;;;;9.45;8.05;;;25.50;95.80;;;;;;634895;226;26647;-65
2022/08/16 08:38:17;;;;;;;9.63;7.90;;;25.60;95.80;;;;;;635257;226;26538;-65
2022/08/16 08:40:45;;;;;;;9.07;8.27;;;25.70;95.80;;;;;;627383;227;26536;-65
2022/08/16 08:43:13;;;;;;;8.65;7.87;;;25.80;95.70;;;;;;629265;227;26533;-65
2022/08/16 08:45:41;;;;;;;9.80;8.80;;;25.90;96.00;;;;;;610025;234;26611;-64
2022/08/16 08:48:08;;;;;;;9.30;8.27;;;25.80;95.60;;;;;;631671;228;26951;-65
2022/08/16 08:50:36;;;;;;;9.73;8.73;;;25.90;95.20;;;;;;631535;227;26580;-65
2022/08/16 08:53:03;;;;;;;9.05;8.15;;;25.90;95.00;;;;;;631125;228;26789;-65
2022/08/16 08:55:32;;;;;;;9.15;8.30;;;26.10;94.90;;;;;;631315;228;26565;-65
2022/08/16 08:57:59;;;;;;;7.18;6.57;;;26.20;94.40;;;;;;631279;227;26551;-65
2022/08/16 09:00:28;;;;;;;8.93;7.90;;;26.20;94.40;;;;;;631385;227;26624;-65
2022/08/16 09:02:54;;;;;;;8.50;7.60;;;26.20;94.30;;;;;;631654;227;26514;-65
2022/08/16 09:05:21;;;;;;;10.23;8.05;;;26.20;93.60;;;;;;631778;227;26805;-65
2022/08/16 09:07:48;;;;;;;8.68;7.95;;;26.30;93.40;;;;;;631590;228;26542;-64
2022/08/16 09:10:15;;;;;;;8.55;7.82;;;26.40;93.20;;;;;;631738;227;26765;-68
2022/08/16 09:12:42;;;;;;;9.38;8.48;;;26.20;92.80;;;;;;631703;228;26536;-65
2022/08/16 09:15:10;;;;;;;8.35;7.55;;;26.40;93.10;;;;;;631708;227;26808;-65
2022/08/16 09:17:38;;;;;;;8.35;7.65;;;26.50;92.40;;;;;;632008;227;26524;-65
2022/08/16 09:20:06;;;;;;;6.93;6.32;;;26.50;91.70;;;;;;631924;227;27200;-65
2022/08/16 09:22:33;;;;;;;6.50;5.93;;;26.50;90.90;;;;;;631746;228;26543;-65
2022/08/16 09:25:00;;;;;;;7.37;6.78;;;26.50;90.20;;;;;;631760;227;26778;-65
2022/08/16 09:27:28;;;;;;;8.05;7.00;;;26.50;90.30;;;;;;632814;225;26556;-65
2022/08/16 09:29:55;;;;;;;6.50;5.95;;;26.60;90.20;;;;;;633024;226;26765;-65
2022/08/16 09:32:22;;;;;;;7.75;7.15;;;26.60;89.90;;;;;;632713;227;26594;-65
2022/08/16 09:34:49;;;;;;;7.70;6.57;;;26.50;89.90;;;;;;632696;227;27268;-65
2022/08/16 09:37:16;;;;;;;7.50;6.90;;;26.60;90.40;;;;;;632287;227;26526;-63
2022/08/16 09:39:44;;;;;;;7.85;7.10;;;26.70;90.50;;;;;;632323;227;27105;-64
2022/08/16 09:42:14;;;;;;;7.87;7.28;;;26.90;89.30;;;;;;632370;227;26524;-65
2022/08/16 09:44:40;;;;;;;8.77;7.87;;;27.10;88.40;;;;;;632084;227;26547;-65
2022/08/16 09:47:08;;;;;;;9.18;7.50;;;27.30;87.90;;;;;;632010;228;26585;-65
2022/08/16 09:49:35;;;;;;;8.48;7.18;;;27.30;87.80;;;;;;632057;228;26575;-65
2022/08/16 09:52:03;;;;;;;8.40;7.03;;;27.30;87.80;;;;;;632088;228;26587;-65
2022/08/16 09:54:30;;;;;;;5.50;5.10;;;27.30;87.50;;;;;;632058;226;27203;-65
2022/08/16 09:56:58;;;;;;;7.70;7.07;;;27.40;84.70;;;;;;626827;225;26554;-65
2022/08/16 09:59:26;;;;;;;7.65;6.97;;;27.40;84.80;;;;;;629810;225;26604;-65
2022/08/16 10:01:54;;;;;;;8.55;7.62;;;27.50;84.60;;;;;;638479;225;26602;-65
2022/08/16 10:04:24;;;;;;;8.48;7.18;;;27.70;84.10;;;;;;638219;225;26561;-65
2022/08/16 10:06:49;;;;;;;6.70;6.15;;;27.70;84.10;;;;;;638207;225;26524;-65
2022/08/16 10:09:16;;;;;;;8.32;7.37;;;27.70;83.70;;;;;;638268;225;26536;-65
2022/08/16 10:14:17;;;;;;;8.48;7.40;;;27.70;81.10;;;;;;632308;222;26564;-65
2022/08/16 10:16:44;;;;;;;6.40;5.80;;;27.70;79.60;;;;;;601396;237;26613;-66
2022/08/16 10:19:11;;;;;;;10.52;6.82;;;27.60;78.40;;;;;;628177;229;26765;-66
2022/08/16 10:21:39;;;;;;;5.90;5.47;;;27.80;78.50;;;;;;624700;230;26628;-66
2022/08/16 10:24:06;;;;;;;5.95;5.55;;;27.90;76.90;;;;;;624668;230;26799;-66
2022/08/16 10:26:33;;;;;;;6.20;5.68;;;28.10;76.90;;;;;;601440;237;26624;-66
2022/08/16 10:29:00;;;;;;;6.72;6.22;;;28.40;73.80;;;;;;601973;239;26973;-66
2022/08/16 10:31:27;;;;;;;6.62;6.12;;;28.40;73.00;;;;;;612955;235;26552;-66
2022/08/16 10:33:55;;;;;;;6.75;6.05;;;28.30;72.70;;;;;;601407;239;27292;-66
2022/08/16 10:36:23;;;;;;;8.10;6.80;;;28.30;73.50;;;;;;601467;239;26866;-65
2022/08/16 10:38:51;;;;;;;5.60;5.20;;;28.30;73.50;;;;;;602262;237;26872;-66
2022/08/16 10:41:18;;;;;;;7.60;6.90;;;28.50;72.70;;;;;;602622;238;26548;-65
2022/08/16 10:43:45;;;;;;;8.82;6.68;;;28.70;71.90;;;;;;602347;239;26654;-65
2022/08/16 10:46:13;;;;;;;7.22;6.53;;;29.10;70.20;;;;;;602230;239;26559;-66
2022/08/16 10:48:41;;;;;;;5.68;5.28;;;29.20;68.80;;;;;;602015;239;26571;-65
2022/08/16 10:51:09;;;;;;;6.70;6.12;;;29.20;69.30;;;;;;602169;239;26559;-65
2022/08/16 10:53:37;;;;;;;5.82;5.32;;;29.40;67.80;;;;;;602218;239;26571;-65
2022/08/16 10:56:04;;;;;;;5.68;5.15;;;29.40;67.70;;;;;;602183;239;26543;-65
2022/08/16 10:58:32;;;;;;;6.75;6.22;;;29.60;68.30;;;;;;601942;239;26589;-65
2022/08/16 11:00:59;;;;;;;6.80;6.12;;;29.80;67.70;;;;;;601843;239;26827;-65
2022/08/16 11:03:28;;;;;;;5.97;5.53;;;29.60;66.20;;;;;;601993;239;26613;-65
2022/08/16 11:05:53;;;;;;;6.00;5.50;;;29.40;65.40;;;;;;601811;239;26818;-65
2022/08/16 11:08:21;;;;;;;6.55;6.05;;;29.50;65.40;;;;;;601945;239;26576;-65
2022/08/16 11:10:48;;;;;;;7.40;6.70;;;29.70;64.60;;;;;;601755;239;26984;-65
2022/08/16 11:13:15;;;;;;;5.20;4.70;;;29.60;63.50;;;;;;601837;239;26584;-65
2022/08/16 11:15:43;;;;;;;5.43;5.03;;;29.90;63.30;;;;;;601656;239;26820;-65
2022/08/16 11:18:09;;;;;;;4.43;4.12;;;29.90;62.90;;;;;;601619;239;26544;-65
2022/08/16 11:20:36;;;;;;;5.40;5.00;;;29.60;63.20;;;;;;601542;239;26544;-65
2022/08/16 11:23:04;;;;;;;6.00;5.57;;;29.50;63.60;;;;;;601675;239;26550;-65
2022/08/16 11:25:33;;;;;;;7.55;6.82;;;29.40;62.20;;;;;;601603;239;26568;-65
2022/08/16 11:28:00;;;;;;;6.60;6.00;;;29.30;61.20;;;;;;628041;229;26503;-65
2022/08/16 11:30:28;;;;;;;5.05;4.65;;;29.30;61.10;;;;;;624708;229;26568;-65
2022/08/16 11:32:55;;;;;;;7.55;6.82;;;29.20;60.70;;;;;;624577;230;26805;-65
2022/08/16 11:35:22;;;;;;;6.90;6.30;;;29.20;62.20;;;;;;601357;237;26590;-64
2022/08/16 11:37:49;;;;;;;5.93;5.43;;;29.20;62.30;;;;;;601919;239;26808;-65
2022/08/16 11:40:16;;;;;;;5.40;5.05;;;29.00;62.80;;;;;;612911;235;26553;-65
2022/08/16 11:42:43;;;;;;;6.35;5.82;;;29.00;63.30;;;;;;601453;239;26826;-65
2022/08/16 11:45:11;;;;;;;8.13;6.03;;;29.10;62.10;;;;;;601420;239;26668;-65
2022/08/16 11:47:38;;;;;;;9.35;6.90;;;29.30;61.90;;;;;;601437;239;26812;-65
2022/08/16 11:50:07;;;;;;;6.85;6.25;;;30.10;61.70;;;;;;602002;233;26587;-65
2022/08/16 11:52:35;;;;;;;7.37;6.78;;;30.10;61.70;;;;;;602716;238;26555;-65
2022/08/16 11:55:04;;;;;;;7.55;6.82;;;30.50;60.90;;;;;;602380;239;26874;-65
2022/08/16 11:57:31;;;;;;;5.37;4.95;;;30.80;59.70;;;;;;602230;239;26575;-66
2022/08/16 11:59:59;;;;;;;7.82;6.45;;;31.00;57.80;;;;;;602063;239;26804;-66
2022/08/16 12:02:25;;;;;;;5.78;5.32;;;31.10;56.50;;;;;;601894;239;26568;-66
2022/08/16 12:04:53;;;;;;;7.30;6.57;;;31.00;56.60;;;;;;601933;239;26849;-65
2022/08/16 12:07:20;;;;;;;7.25;6.65;;;31.00;56.80;;;;;;601962;239;26584;-65
2022/08/16 12:09:47;;;;;;;7.32;6.62;;;31.00;57.20;;;;;;601661;239;26644;-64
2022/08/16 12:12:15;;;;;;;6.78;6.28;;;30.90;57.00;;;;;;601604;239;26662;-65
2022/08/16 12:14:43;;;;;;;5.40;4.90;;;30.90;56.30;;;;;;601705;239;26699;-65
2022/08/16 12:17:12;;;;;;;6.57;5.95;;;31.00;56.30;;;;;;601688;239;26596;-66
2022/08/16 12:19:40;;;;;;;7.12;6.47;;;31.10;56.10;;;;;;601758;239;26600;-66
2022/08/16 12:22:07;;;;;;;6.95;6.28;;;31.10;56.00;;;;;;601560;239;26618;-65
2022/08/16 12:24:34;;;;;;;5.22;4.82;;;31.40;55.90;;;;;;601665;239;26650;-65
2022/08/16 12:27:01;;;;;;;6.60;6.00;;;31.50;55.10;;;;;;601476;234;26828;-66
2022/08/16 12:29:29;;;;;;;7.50;6.57;;;31.70;54.70;;;;;;601398;239;26615;-65
2022/08/16 12:31:55;;;;;;;5.25;4.87;;;31.90;54.90;;;;;;601360;239;26947;-66
2022/08/16 12:34:23;;;;;;;7.07;6.25;;;32.00;54.50;;;;;;601398;239;26575;-66
2022/08/16 12:36:51;;;;;;;6.53;5.97;;;32.00;53.10;;;;;;601430;239;26585;-65
2022/08/16 12:39:19;;;;;;;7.80;6.00;;;32.00;53.40;;;;;;601354;239;26586;-65
2022/08/16 12:41:46;;;;;;;7.40;6.60;;;31.90;53.30;;;;;;601296;239;26577;-65
2022/08/16 12:44:13;;;;;;;7.97;6.35;;;31.70;54.20;;;;;;601327;239;26602;-65
2022/08/16 12:46:40;;;;;;;5.03;4.65;;;31.60;53.20;;;;;;601380;239;26808;-66
2022/08/16 12:49:10;;;;;;;4.55;4.25;;;31.40;53.10;;;;;;601381;239;26589;-65